Time;durP1;ratioP1;P1;durP2;ratioP2;P2;SDS_P1;SDS_P2;PMS_P1;PMS_P2;Temp;Humidity;BMP_temperature;BMP_pressure;BME280_temperature;BME280_humidity;BME280_pressure;Samples;Min_cycle;Max_cycle;Signal;HPM_P1;HPM_P2
2023/10/06 00:01:44;;;;;;;13.40;5.47;;;;;;;12.85;100.00;101992.06;4964191;28;20185;-46
2023/10/06 00:04:18;;;;;;;11.27;6.05;;;;;;;12.86;100.00;101978.59;4964747;28;20233;-46
2023/10/06 00:06:45;;;;;;;10.00;5.93;;;;;;;12.83;100.00;101975.97;4964228;28;20208;-45
2023/10/06 00:09:21;;;;;;;9.65;6.13;;;;;;;12.83;100.00;101980.47;4966014;28;20360;-47
2023/10/06 00:11:50;;;;;;;11.77;7.18;;;;;;;12.83;100.00;101975.09;4967103;28;20221;-48
2023/10/06 00:14:38;;;;;;;10.77;6.15;;;;;;;12.83;100.00;101983.16;4963718;28;20257;-46
2023/10/06 00:17:11;;;;;;;10.85;6.35;;;;;;;12.86;100.00;101977.72;4963731;28;20190;-45
2023/10/06 00:19:39;;;;;;;11.20;6.82;;;;;;;12.86;100.00;101985.78;4966555;28;20208;-47
2023/10/06 00:24:55;;;;;;;12.65;7.80;;;;;;;12.87;100.00;101988.41;4965952;28;20791;-44
2023/10/06 00:27:24;;;;;;;14.02;7.55;;;;;;;12.88;100.00;101982.13;4963229;28;20190;-44
2023/10/06 00:29:56;;;;;;;12.40;8.35;;;;;;;12.93;100.00;101976.59;4966007;28;20328;-45
2023/10/06 00:32:23;;;;;;;14.38;8.68;;;;;;;12.91;100.00;101976.63;4966764;28;20209;-45
2023/10/06 00:34:50;;;;;;;12.82;8.52;;;;;;;12.93;100.00;101972.09;4965769;28;20194;-45
2023/10/06 00:37:17;;;;;;;12.18;7.85;;;;;;;12.97;100.00;101975.59;4962823;28;20194;-45
2023/10/06 00:39:46;;;;;;;12.77;7.90;;;;;;;12.97;100.00;101973.78;4945054;28;20599;-45
2023/10/06 00:42:15;;;;;;;26.42;8.95;;;;;;;12.99;100.00;101976.44;4963627;28;20186;-45
2023/10/06 00:44:41;;;;;;;16.50;8.57;;;;;;;12.97;100.00;101968.41;4961520;28;20187;-46
2023/10/06 00:47:10;;;;;;;14.18;7.97;;;;;;;12.98;100.00;101972.84;4966002;28;20397;-44
2023/10/06 00:49:37;;;;;;;12.73;8.10;;;;;;;13.01;100.00;101968.28;4944014;28;20661;-46
2023/10/06 00:52:06;;;;;;;12.10;8.05;;;;;;;13.01;100.00;101966.50;4965155;28;20197;-46
2023/10/06 00:54:33;;;;;;;16.60;8.65;;;;;;;13.04;100.00;101968.22;4962268;28;20280;-44
2023/10/06 00:57:08;;;;;;;15.60;8.23;;;;;;;13.06;100.00;101977.13;4963530;28;20191;-46
2023/10/06 00:59:35;;;;;;;12.23;8.40;;;;;;;13.09;100.00;101974.31;4961803;28;20179;-45
2023/10/06 01:02:01;;;;;;;16.80;8.13;;;;;;;13.10;100.00;101963.53;4964480;28;20186;-46
2023/10/06 01:04:26;;;;;;;15.45;8.00;;;;;;;13.12;100.00;101960.78;4955784;28;20212;-45
2023/10/06 01:06:55;;;;;;;14.52;8.05;;;;;;;13.12;100.00;101953.59;4949179;28;20726;-46
2023/10/06 01:09:30;;;;;;;12.60;8.00;;;;;;;13.16;100.00;101955.28;4944151;28;20214;-46
2023/10/06 01:11:57;;;;;;;12.35;8.23;;;;;;;13.18;100.00;101948.03;4963506;28;20201;-48
2023/10/06 01:14:26;;;;;;;11.75;7.60;;;;;;;13.20;100.00;101943.47;4963911;28;20209;-47
2023/10/06 01:16:56;;;;;;;12.60;8.43;;;;;;;13.23;100.00;101945.19;4955176;28;20229;-46
2023/10/06 01:19:33;;;;;;;13.77;7.43;;;;;;;13.27;100.00;101943.28;4963587;28;20197;-46
2023/10/06 01:22:20;;;;;;;16.55;7.95;;;;;;;13.30;100.00;101943.22;4963170;28;20177;-45
2023/10/06 01:24:45;;;;;;;12.73;7.78;;;;;;;13.38;100.00;101928.59;4962168;28;20660;-46
2023/10/06 01:27:11;;;;;;;17.85;7.40;;;;;;;13.35;100.00;101920.59;4947139;28;20269;-45
2023/10/06 01:29:38;;;;;;;11.95;8.07;;;;;;;13.37;100.00;101929.50;4960945;28;20301;-47
2023/10/06 01:32:05;;;;;;;17.65;8.15;;;;;;;13.39;100.00;101924.06;4946449;28;20190;-47
2023/10/06 01:34:40;;;;;;;15.25;7.55;;;;;;;13.40;100.00;101925.81;4956052;28;20193;-46
2023/10/06 01:37:07;;;;;;;16.80;8.00;;;;;;;13.42;100.00;101933.84;4963477;28;20178;-46
2023/10/06 01:39:36;;;;;;;16.40;7.78;;;;;;;13.45;100.00;101923.88;4961122;28;20201;-47
2023/10/06 01:42:16;;;;;;;13.63;7.55;;;;;;;13.51;100.00;101917.41;4951705;28;20561;-47
2023/10/06 01:44:42;;;;;;;12.45;8.63;;;;;;;13.44;100.00;101915.84;4962645;28;20187;-48
2023/10/06 01:47:07;;;;;;;14.90;8.07;;;;;;;13.45;100.00;101906.84;4962697;28;20197;-47
2023/10/06 01:49:36;;;;;;;15.75;8.40;;;;;;;13.45;100.00;101906.84;4960371;28;20697;-46
2023/10/06 01:52:04;;;;;;;12.40;7.20;;;;;;;13.44;100.00;101895.19;4945269;28;20183;-46
2023/10/06 01:54:34;;;;;;;12.13;7.20;;;;;;;13.42;100.00;101891.66;4961103;28;20186;-46
2023/10/06 01:57:06;;;;;;;16.80;6.90;;;;;;;13.48;100.00;101898.66;4962445;28;20186;-47
2023/10/06 01:59:33;;;;;;;12.32;8.00;;;;;;;13.44;100.00;101889.81;4943645;28;20167;-46
2023/10/06 02:02:02;;;;;;;18.20;7.93;;;;;;;13.43;100.00;101887.19;4951987;28;20277;-45
2023/10/06 02:04:39;;;;;;;14.77;6.93;;;;;;;13.45;100.00;101886.19;4961156;28;20284;-49
2023/10/06 02:07:05;;;;;;;15.10;7.05;;;;;;;13.38;100.00;101890.00;4947085;28;20178;-49
2023/10/06 02:09:32;;;;;;;11.80;6.90;;;;;;;13.37;100.00;101889.13;4954849;23;20697;-46
2023/10/06 02:11:57;;;;;;;14.95;7.65;;;;;;;13.38;100.00;101887.31;4936437;29;20640;-46
2023/10/06 02:14:23;;;;;;;15.23;7.10;;;;;;;13.37;100.00;101881.06;4900249;29;20207;-46
2023/10/06 02:16:49;;;;;;;18.20;7.85;;;;;;;13.42;100.00;101870.13;4916859;29;20366;-47
2023/10/06 02:19:18;;;;;;;17.25;7.68;;;;;;;13.38;100.00;101864.00;4921354;29;20188;-45
2023/10/06 02:21:50;;;;;;;18.08;7.90;;;;;;;13.35;100.00;101863.19;4916700;29;20179;-45
2023/10/06 02:24:16;;;;;;;11.48;7.15;;;;;;;13.39;100.00;101860.34;4925665;29;20222;-46
2023/10/06 02:26:50;;;;;;;13.98;7.55;;;;;;;13.34;100.00;101845.31;4908020;29;20175;-47
2023/10/06 02:29:24;;;;;;;17.35;7.95;;;;;;;13.33;100.00;101852.47;4905786;29;20196;-46
2023/10/06 02:31:52;;;;;;;13.63;8.73;;;;;;;13.34;100.00;101843.47;4918216;29;20178;-47
2023/10/06 02:34:38;;;;;;;18.13;8.13;;;;;;;13.31;100.00;101832.78;4921869;29;20254;-46
2023/10/06 02:37:04;;;;;;;11.75;6.43;;;;;;;13.31;100.00;101834.63;4932424;29;20208;-45
2023/10/06 02:39:43;;;;;;;20.23;8.13;;;;;;;13.32;100.00;101844.47;4899963;29;20188;-47
2023/10/06 02:42:13;;;;;;;17.10;7.20;;;;;;;13.31;100.00;101846.25;4918017;29;20263;-47
2023/10/06 02:44:40;;;;;;;12.70;7.85;;;;;;;13.31;100.00;101846.25;4922143;29;20178;-46
2023/10/06 02:47:11;;;;;;;19.38;7.40;;;;;;;13.30;100.00;101863.34;4918605;29;20215;-44
2023/10/06 02:49:38;;;;;;;18.05;7.97;;;;;;;13.28;100.00;101849.06;4925679;29;20183;-47
2023/10/06 02:55:12;;;;;;;15.35;7.95;;;;;;;13.27;100.00;101849.06;4910002;29;20198;-47
2023/10/06 02:57:38;;;;;;;15.65;7.50;;;;;;;13.26;100.00;101837.44;4919602;29;20206;-45
2023/10/06 03:02:55;;;;;;;18.70;7.05;;;;;;;13.24;100.00;101827.66;4922588;29;20222;-44
2023/10/06 03:05:33;;;;;;;17.17;7.10;;;;;;;13.24;100.00;101816.88;4916508;29;20625;-45
2023/10/06 03:08:01;;;;;;;17.27;7.63;;;;;;;13.24;100.00;101819.59;4902153;29;20226;-47
2023/10/06 03:10:30;;;;;;;14.82;7.63;;;;;;;13.24;100.00;101816.88;4890719;29;20715;-46
2023/10/06 03:12:57;;;;;;;16.65;8.27;;;;;;;13.20;100.00;101797.25;4923700;29;20207;-46
2023/10/06 03:15:36;;;;;;;17.25;7.55;;;;;;;13.20;100.00;101794.56;4903558;29;20184;-45
2023/10/06 03:18:03;;;;;;;14.90;8.32;;;;;;;13.16;100.00;101803.69;4906396;29;20218;-46
2023/10/06 03:20:41;;;;;;;21.70;8.02;;;;;;;13.13;100.00;101810.03;4905043;29;20187;-46
2023/10/06 03:23:23;;;;;;;18.75;8.18;;;;;;;13.10;100.00;101804.78;4923874;29;20219;-46
2023/10/06 03:25:54;;;;;;;17.10;7.47;;;;;;;13.15;100.00;101802.81;4913215;29;20250;-45
2023/10/06 03:28:24;;;;;;;18.17;7.43;;;;;;;13.08;100.00;101801.25;4902585;29;20188;-45
2023/10/06 03:30:52;;;;;;;21.48;7.90;;;;;;;13.04;100.00;101806.78;4907131;29;20562;-45
2023/10/06 03:33:23;;;;;;;13.70;7.30;;;;;;;12.98;100.00;101807.84;4919597;29;20200;-47
2023/10/06 03:35:49;;;;;;;16.40;7.32;;;;;;;13.04;100.00;101806.78;4903158;29;20227;-44
2023/10/06 03:41:04;;;;;;;17.25;7.22;;;;;;;12.94;100.00;101787.38;4917948;29;20268;-45
2023/10/06 03:43:50;;;;;;;20.77;7.60;;;;;;;12.97;100.00;101792.66;4917844;29;20207;-47
2023/10/06 03:46:20;;;;;;;15.20;7.40;;;;;;;12.98;100.00;101783.66;4899457;29;20553;-46
2023/10/06 03:48:48;;;;;;;17.30;7.28;;;;;;;12.94;100.00;101784.69;4919325;29;20215;-46
2023/10/06 03:51:18;;;;;;;11.48;6.80;;;;;;;12.94;100.00;101782.91;4927495;29;20549;-45
2023/10/06 03:53:48;;;;;;;15.45;7.28;;;;;;;12.92;100.00;101783.84;4925191;29;20562;-47
2023/10/06 03:56:18;;;;;;;16.92;8.00;;;;;;;12.91;100.00;101765.97;4920449;29;20231;-45
2023/10/06 03:58:45;;;;;;;21.98;7.43;;;;;;;12.90;100.00;101770.47;4918728;29;20562;-46
2023/10/06 04:01:37;;;;;;;18.17;8.73;;;;;;;12.87;100.00;101761.59;4918213;29;20211;-46
2023/10/06 04:03:59;;;;;;;15.45;8.38;;;;;;;12.86;100.00;101765.25;4918167;29;20212;-46
2023/10/06 04:06:28;;;;;;;18.98;8.45;;;;;;;12.86;100.00;101767.94;4916564;29;20260;-45
2023/10/06 04:08:53;;;;;;;16.08;7.75;;;;;;;12.82;100.00;101761.75;4917752;29;20237;-45
2023/10/06 04:11:19;;;;;;;15.02;8.25;;;;;;;12.84;100.00;101753.66;4918017;29;20767;-45
2023/10/06 04:13:45;;;;;;;15.15;7.40;;;;;;;12.85;100.00;101742.81;4916017;29;20272;-45
2023/10/06 04:16:14;;;;;;;21.88;8.32;;;;;;;12.84;100.00;101738.38;4919179;29;20612;-47
2023/10/06 04:18:40;;;;;;;13.18;7.60;;;;;;;12.87;100.00;101737.41;4915643;29;20737;-46
2023/10/06 04:21:11;;;;;;;14.13;7.95;;;;;;;12.85;100.00;101732.06;4919050;29;20176;-46
2023/10/06 04:23:41;;;;;;;17.60;8.15;;;;;;;12.83;100.00;101727.66;4925754;29;21070;-46
2023/10/06 04:26:10;;;;;;;14.13;7.40;;;;;;;12.88;100.00;101712.25;4922957;29;20187;-45
2023/10/06 04:28:36;;;;;;;13.68;7.38;;;;;;;12.84;100.00;101719.56;4919700;29;20573;-47
2023/10/06 04:31:02;;;;;;;16.45;7.45;;;;;;;12.82;100.00;101715.16;4916617;29;20605;-47
2023/10/06 04:33:28;;;;;;;15.57;6.95;;;;;;;12.84;100.00;101722.25;4917890;29;20216;-46
2023/10/06 04:36:11;;;;;;;14.88;7.60;;;;;;;12.84;100.00;101708.81;4916820;29;20180;-48
2023/10/06 04:38:38;;;;;;;15.57;6.80;;;;;;;12.84;100.00;101706.13;4917128;29;20183;-47
2023/10/06 04:41:08;;;;;;;13.20;6.72;;;;;;;12.81;100.00;101711.56;4914791;29;20214;-48
2023/10/06 04:43:44;;;;;;;17.05;7.40;;;;;;;12.84;100.00;101705.25;4918056;29;20212;-48
2023/10/06 04:46:10;;;;;;;14.60;7.15;;;;;;;12.75;100.00;101704.63;4913557;29;20198;-47
2023/10/06 04:48:36;;;;;;;14.55;6.80;;;;;;;12.76;100.00;101725.19;4918220;29;20192;-46
2023/10/06 04:51:03;;;;;;;13.38;6.43;;;;;;;12.75;100.00;101707.31;4915476;29;20539;-45
2023/10/06 04:53:30;;;;;;;15.20;7.07;;;;;;;12.77;100.00;101694.69;4917051;29;20218;-45
2023/10/06 04:55:55;;;;;;;17.58;6.53;;;;;;;12.78;100.00;101701.81;4917469;29;20640;-46
2023/10/06 04:58:20;;;;;;;13.45;7.10;;;;;;;12.77;100.00;101710.81;4920182;29;20184;-46
2023/10/06 05:00:52;;;;;;;12.23;6.97;;;;;;;12.77;100.00;101708.13;4913295;29;20271;-45
2023/10/06 05:03:17;;;;;;;14.35;7.72;;;;;;;12.78;100.00;101712.56;4912461;29;20204;-46
2023/10/06 05:05:43;;;;;;;18.60;6.93;;;;;;;12.83;100.00;101698.97;4918243;29;20183;-46
2023/10/06 05:08:14;;;;;;;14.05;6.32;;;;;;;12.82;100.00;101682.91;4916005;29;20553;-45
2023/10/06 05:10:40;;;;;;;15.80;6.32;;;;;;;12.77;100.00;101685.75;4920050;29;20738;-47
2023/10/06 05:13:10;;;;;;;18.30;7.20;;;;;;;12.76;100.00;101686.66;4914326;29;20215;-46
2023/10/06 05:15:37;;;;;;;14.95;6.32;;;;;;;12.78;100.00;101676.72;4918219;29;20176;-47
2023/10/06 05:18:04;;;;;;;19.95;7.15;;;;;;;12.81;100.00;101675.75;4914259;29;20180;-46
2023/10/06 05:20:33;;;;;;;13.75;6.07;;;;;;;12.86;100.00;101661.22;4918875;29;20199;-46
2023/10/06 05:23:09;;;;;;;14.98;7.13;;;;;;;12.86;100.00;101663.03;4916874;29;20200;-46
2023/10/06 05:25:36;;;;;;;14.10;6.75;;;;;;;12.83;100.00;101660.44;4918657;29;20214;-47
2023/10/06 05:28:03;;;;;;;15.50;6.47;;;;;;;12.85;100.00;101674.72;4917383;29;20179;-47
2023/10/06 05:30:29;;;;;;;12.70;6.30;;;;;;;12.90;100.00;101672.72;4918718;29;20210;-46
2023/10/06 05:32:59;;;;;;;15.88;7.00;;;;;;;12.93;100.00;101676.22;4918890;29;20222;-46
2023/10/06 05:35:35;;;;;;;13.05;6.53;;;;;;;12.98;100.00;101684.13;4911570;29;20765;-47
2023/10/06 05:38:03;;;;;;;12.55;6.70;;;;;;;13.04;100.00;101685.72;4917120;29;20470;-48
2023/10/06 05:40:29;;;;;;;15.52;7.82;;;;;;;13.03;100.00;101676.78;4917948;29;20216;-46
2023/10/06 05:42:55;;;;;;;15.73;7.35;;;;;;;13.03;100.00;101679.47;4914678;29;20200;-46
2023/10/06 05:45:21;;;;;;;15.68;7.30;;;;;;;12.99;100.00;101676.00;4913559;29;20183;-46
2023/10/06 05:47:50;;;;;;;13.57;7.10;;;;;;;13.02;100.00;101668.75;4921568;29;20191;-46
2023/10/06 05:50:27;;;;;;;15.60;7.00;;;;;;;12.96;100.00;101659.09;4916360;29;20199;-48
2023/10/06 05:53:07;;;;;;;14.35;7.70;;;;;;;12.86;100.00;101663.91;4919038;29;20646;-46
2023/10/06 05:55:35;;;;;;;13.43;7.85;;;;;;;12.80;100.00;101658.75;4919605;29;20273;-47
2023/10/06 05:58:03;;;;;;;15.43;8.02;;;;;;;12.78;100.00;101657.91;4920256;29;20192;-46
2023/10/06 06:00:33;;;;;;;17.17;8.38;;;;;;;12.75;100.00;101648.16;4917966;29;20258;-47
2023/10/06 06:03:13;;;;;;;12.75;7.95;;;;;;;12.72;100.00;101636.59;4922789;29;20202;-47
2023/10/06 06:05:40;;;;;;;17.45;8.70;;;;;;;12.69;100.00;101639.41;4916290;29;20171;-46
2023/10/06 06:08:08;;;;;;;15.98;9.13;;;;;;;12.65;100.00;101651.19;4918820;29;20176;-47
2023/10/06 06:10:38;;;;;;;18.73;8.55;;;;;;;12.65;100.00;101653.88;4916192;29;20199;-46
2023/10/06 06:13:04;;;;;;;15.68;9.20;;;;;;;12.59;100.00;101654.94;4920175;29;20203;-46
2023/10/06 06:15:31;;;;;;;19.20;9.18;;;;;;;12.60;100.00;101664.78;4918811;29;20243;-48
2023/10/06 06:18:00;;;;;;;22.27;9.43;;;;;;;12.59;100.00;101663.03;4917167;29;20228;-48
2023/10/06 06:20:27;;;;;;;14.13;9.07;;;;;;;12.59;100.00;101676.47;4917138;29;20194;-48
2023/10/06 06:22:53;;;;;;;24.08;10.80;;;;;;;12.56;100.00;101676.56;4917031;29;20235;-45
2023/10/06 06:25:21;;;;;;;19.90;10.15;;;;;;;12.56;100.00;101671.19;4917949;29;20188;-47
2023/10/06 06:27:47;;;;;;;17.13;10.07;;;;;;;12.57;100.00;101660.41;4919664;29;20199;-46
2023/10/06 06:30:18;;;;;;;20.85;10.80;;;;;;;12.57;100.00;101656.81;4919673;29;20231;-47
2023/10/06 06:32:50;;;;;;;22.85;10.48;;;;;;;12.56;100.00;101660.44;4904569;29;20713;-45
2023/10/06 06:35:23;;;;;;;18.88;11.13;;;;;;;12.58;100.00;101654.09;4917142;29;20195;-48
2023/10/06 06:37:51;;;;;;;18.75;10.98;;;;;;;12.55;100.00;101659.56;4918684;29;20574;-48
2023/10/06 06:40:19;;;;;;;19.02;11.57;;;;;;;12.60;100.00;101656.72;4915457;29;20191;-48
2023/10/06 06:42:51;;;;;;;21.08;11.38;;;;;;;12.58;100.00;101654.09;4917596;29;20215;-47
2023/10/06 06:45:17;;;;;;;14.00;10.00;;;;;;;12.56;100.00;101657.75;4916766;29;20250;-46
2023/10/06 06:47:43;;;;;;;19.30;11.05;;;;;;;12.54;100.00;101643.50;4916803;29;20192;-47
2023/10/06 06:50:17;;;;;;;19.80;11.25;;;;;;;12.55;100.00;101647.91;4916081;29;20279;-46
2023/10/06 06:52:44;;;;;;;14.05;9.50;;;;;;;12.58;100.00;101650.53;4915883;29;20203;-47
2023/10/06 06:55:14;;;;;;;16.27;9.13;;;;;;;12.52;100.00;101638.16;4922157;29;20194;-47
2023/10/06 06:57:49;;;;;;;17.95;9.98;;;;;;;12.55;100.00;101638.06;4919722;29;20191;-47
2023/10/06 07:00:21;;;;;;;17.58;9.40;;;;;;;12.61;100.00;101642.34;4920301;29;20196;-46
2023/10/06 07:02:56;;;;;;;16.85;9.40;;;;;;;12.55;100.00;101639.84;4921261;29;20223;-46
2023/10/06 07:05:22;;;;;;;18.88;9.85;;;;;;;12.55;100.00;101642.53;4914449;29;20203;-48
2023/10/06 07:07:51;;;;;;;14.70;9.77;;;;;;;12.55;100.00;101645.22;4915701;29;20198;-47
2023/10/06 07:10:22;;;;;;;16.50;8.43;;;;;;;12.54;100.00;101643.50;4917644;29;20257;-46
2023/10/06 07:12:49;;;;;;;11.93;7.75;;;;;;;12.54;100.00;101643.50;4918375;29;20199;-47
2023/10/06 07:15:15;;;;;;;14.27;8.15;;;;;;;12.49;100.00;101646.34;4899049;29;20183;-46
2023/10/06 07:17:53;;;;;;;14.02;7.97;;;;;;;12.55;100.00;101640.75;4916099;29;20263;-46
2023/10/06 07:20:23;;;;;;;15.55;7.90;;;;;;;12.47;100.00;101637.44;4916175;29;20203;-46
2023/10/06 07:22:53;;;;;;;13.07;7.15;;;;;;;12.49;100.00;101635.59;4918511;29;20203;-47
2023/10/06 07:25:19;;;;;;;17.25;7.63;;;;;;;12.48;100.00;101622.19;4899110;29;20231;-46
2023/10/06 07:27:47;;;;;;;10.20;6.97;;;;;;;12.48;100.00;101641.88;4916183;29;20259;-46
2023/10/06 07:30:14;;;;;;;12.82;8.02;;;;;;;12.44;100.00;101637.56;4910591;29;20207;-45
2023/10/06 07:32:44;;;;;;;11.27;7.68;;;;;;;12.48;100.00;101639.19;4926158;29;20254;-47
2023/10/06 07:35:11;;;;;;;12.43;7.13;;;;;;;12.49;100.00;101640.09;4920549;29;20176;-46
2023/10/06 07:37:39;;;;;;;12.90;7.53;;;;;;;12.56;100.00;101626.38;4918562;29;20216;-46
2023/10/06 07:40:12;;;;;;;12.32;7.60;;;;;;;12.61;100.00;101619.97;4924029;29;20171;-48
2023/10/06 07:42:42;;;;;;;15.30;8.00;;;;;;;12.55;100.00;101621.94;4917980;29;20219;-48
2023/10/06 07:45:08;;;;;;;9.75;7.55;;;;;;;12.55;100.00;101621.03;4913513;29;20172;-45
2023/10/06 07:47:36;;;;;;;12.77;7.63;;;;;;;12.54;100.00;101630.91;4916975;29;20188;-47
2023/10/06 07:50:05;;;;;;;15.02;8.57;;;;;;;12.50;100.00;101623.00;4924628;29;20215;-47
2023/10/06 07:52:32;;;;;;;13.88;8.48;;;;;;;12.47;100.00;101615.06;4918047;29;20208;-47
2023/10/06 07:54:58;;;;;;;16.70;9.25;;;;;;;12.51;100.00;101617.59;4916360;29;20180;-46
2023/10/06 07:57:23;;;;;;;17.98;10.00;;;;;;;12.52;100.00;101624.72;4917955;29;20231;-46
2023/10/06 07:59:49;;;;;;;16.73;10.02;;;;;;;12.56;100.00;101621.00;4918702;29;20189;-45
2023/10/06 08:02:14;;;;;;;18.95;10.80;;;;;;;12.58;100.00;101623.63;4916442;29;20172;-47
2023/10/06 08:04:41;;;;;;;22.40;11.43;;;;;;;12.62;100.00;101632.50;4917104;29;20172;-47
2023/10/06 08:07:06;;;;;;;14.48;10.52;;;;;;;12.61;100.00;101646.84;4925492;29;20187;-47
2023/10/06 08:09:38;;;;;;;17.42;10.20;;;;;;;12.64;100.00;101635.97;4916481;29;20392;-44
2023/10/06 08:12:08;;;;;;;19.60;10.85;;;;;;;12.66;100.00;101635.03;4914861;29;20615;-45
2023/10/06 08:14:34;;;;;;;17.17;10.90;;;;;;;12.64;100.00;101638.66;4911924;29;20703;-45
2023/10/06 08:17:00;;;;;;;19.20;10.98;;;;;;;12.67;100.00;101638.59;4921258;29;20180;-46
2023/10/06 08:19:26;;;;;;;18.27;11.23;;;;;;;12.68;100.00;101627.78;4917573;29;20211;-47
2023/10/06 08:21:51;;;;;;;18.30;11.52;;;;;;;12.66;100.00;101631.44;4921468;29;20306;-45
2023/10/06 08:24:17;;;;;;;19.17;12.65;;;;;;;12.68;100.00;101625.09;4917585;29;20245;-46
2023/10/06 08:26:42;;;;;;;20.90;11.95;;;;;;;12.68;100.00;101614.34;4917958;29;20623;-45
2023/10/06 08:29:08;;;;;;;22.33;12.45;;;;;;;12.72;100.00;101615.09;4920618;29;20294;-47
2023/10/06 08:31:34;;;;;;;16.92;12.68;;;;;;;12.76;100.00;101620.31;4917205;29;20179;-45
2023/10/06 08:34:05;;;;;;;18.20;12.90;;;;;;;12.77;100.00;101621.22;4916420;29;20579;-48
2023/10/06 08:36:31;;;;;;;17.58;12.63;;;;;;;12.81;100.00;101619.28;4924044;29;20190;-46
2023/10/06 08:38:58;;;;;;;16.65;12.38;;;;;;;12.78;100.00;101613.06;4915986;29;20172;-47
2023/10/06 08:41:35;;;;;;;23.80;12.52;;;;;;;12.79;100.00;101611.28;4916918;29;20278;-45
2023/10/06 08:44:02;;;;;;;16.90;12.73;;;;;;;12.81;100.00;101601.31;4925399;29;20262;-47
2023/10/06 08:46:31;;;;;;;21.35;13.00;;;;;;;12.82;100.00;101604.91;4914304;29;20324;-48
2023/10/06 08:48:58;;;;;;;16.83;12.50;;;;;;;12.88;100.00;101621.72;4917712;29;20217;-47
2023/10/06 08:51:26;;;;;;;20.38;13.18;;;;;;;12.83;100.00;101612.91;4910586;29;20927;-48
2023/10/06 08:53:55;;;;;;;22.92;12.82;;;;;;;12.84;100.00;101613.81;4922178;29;20237;-48
2023/10/06 08:56:21;;;;;;;17.13;12.45;;;;;;;12.85;100.00;101602.97;4898140;29;20519;-47
2023/10/06 08:58:47;;;;;;;21.58;13.30;;;;;;;12.89;100.00;101596.56;4898264;29;20188;-48
2023/10/06 09:01:13;;;;;;;29.55;14.07;;;;;;;12.90;100.00;101605.50;4913991;29;20729;-46
2023/10/06 09:03:39;;;;;;;22.80;11.57;;;;;;;12.94;100.00;101607.16;4916777;29;20200;-48
2023/10/06 09:06:11;;;;;;;17.98;12.38;;;;;;;12.96;100.00;101613.34;4917332;29;20620;-47
2023/10/06 09:08:41;;;;;;;18.70;12.77;;;;;;;12.93;100.00;101600.03;4910820;29;20200;-48
2023/10/06 09:11:07;;;;;;;19.60;12.43;;;;;;;12.95;100.00;101600.84;4915098;29;20188;-47
2023/10/06 09:13:32;;;;;;;21.77;13.50;;;;;;;12.97;100.00;101607.06;4917110;29;20682;-48
2023/10/06 09:16:02;;;;;;;24.42;13.95;;;;;;;12.98;100.00;101596.22;4915900;29;20254;-48
2023/10/06 09:18:28;;;;;;;18.33;12.48;;;;;;;13.01;100.00;101597.03;4917901;29;20198;-48
2023/10/06 09:20:57;;;;;;;18.33;12.98;;;;;;;13.05;100.00;101587.94;4915739;29;20188;-47
2023/10/06 09:23:30;;;;;;;19.92;12.90;;;;;;;13.17;100.00;101571.34;4916170;29;20342;-44
2023/10/06 09:25:57;;;;;;;19.27;12.20;;;;;;;13.15;100.00;101579.47;4915718;29;20220;-47
2023/10/06 09:28:23;;;;;;;22.58;12.05;;;;;;;13.12;100.00;101574.22;4915103;29;20183;-48
2023/10/06 09:30:56;;;;;;;18.73;12.75;;;;;;;13.19;100.00;101575.75;4915073;29;20189;-48
2023/10/06 09:33:41;;;;;;;18.23;12.05;;;;;;;13.17;100.00;101563.28;4916830;29;20204;-46
2023/10/06 09:36:16;;;;;;;16.30;12.95;;;;;;;13.20;100.00;101571.22;4917384;29;20643;-47
2023/10/06 09:38:43;;;;;;;16.92;12.18;;;;;;;13.19;100.00;101573.03;4914714;29;20199;-45
2023/10/06 09:41:11;;;;;;;19.38;12.60;;;;;;;13.24;100.00;101553.16;4900438;29;20179;-48
2023/10/06 09:43:41;;;;;;;16.52;11.60;;;;;;;13.24;100.00;101551.34;4917079;29;20682;-47
2023/10/06 09:46:08;;;;;;;24.45;12.85;;;;;;;13.32;100.00;101557.34;4915550;29;20187;-46
2023/10/06 09:48:38;;;;;;;16.92;11.32;;;;;;;13.38;100.00;101564.28;4916936;29;20196;-47
2023/10/06 09:51:08;;;;;;;16.83;11.70;;;;;;;13.35;100.00;101561.75;4915248;29;20251;-47
2023/10/06 09:53:38;;;;;;;19.05;11.93;;;;;;;13.32;100.00;101560.03;4919056;29;20295;-48
2023/10/06 09:56:06;;;;;;;22.75;11.70;;;;;;;13.31;100.00;101560.09;4915644;29;20529;-47
2023/10/06 09:58:33;;;;;;;17.70;11.30;;;;;;;13.33;100.00;101563.59;4917140;29;20247;-48
2023/10/06 10:01:00;;;;;;;15.95;11.23;;;;;;;13.35;100.00;101564.44;4914321;29;20204;-48
2023/10/06 10:03:27;;;;;;;15.27;11.75;;;;;;;13.40;100.00;101570.50;4915084;29;20271;-47
2023/10/06 10:05:53;;;;;;;15.80;10.93;;;;;;;13.42;100.00;101551.59;4915207;29;20191;-47
2023/10/06 10:08:22;;;;;;;15.05;11.38;;;;;;;13.38;100.00;101540.97;4899303;29;20184;-48
2023/10/06 10:10:55;;;;;;;14.95;10.38;;;;;;;13.41;100.00;101525.66;4913496;29;20203;-45
2023/10/06 10:13:50;;;;;;;16.10;10.60;;;;;;;13.41;100.00;101539.97;4915478;29;20291;-46
2023/10/06 10:16:29;;;;;;;12.43;9.85;;;;;;;13.39;100.00;101536.47;4918252;29;20187;-48
2023/10/06 10:19:07;;;;;;;15.35;10.88;;;;;;;13.51;100.00;101529.72;4916762;29;20188;-48
2023/10/06 10:21:34;;;;;;;14.50;10.25;;;;;;;13.48;100.00;101530.72;4918556;29;20247;-48
2023/10/06 10:24:13;;;;;;;13.07;10.40;;;;;;;13.49;100.00;101527.09;4918132;29;20287;-47
2023/10/06 10:26:39;;;;;;;12.65;10.02;;;;;;;13.55;100.00;101529.53;4912194;29;20192;-48
2023/10/06 10:29:16;;;;;;;11.60;9.35;;;;;;;13.51;100.00;101529.72;4912908;29;20200;-47
2023/10/06 10:31:52;;;;;;;13.30;10.23;;;;;;;13.52;100.00;101509.94;4910717;29;20203;-47
2023/10/06 10:34:21;;;;;;;14.02;10.35;;;;;;;13.50;100.00;101515.38;4898049;29;20706;-47
2023/10/06 10:36:48;;;;;;;13.35;10.20;;;;;;;13.55;100.00;101507.97;4913635;29;20285;-46
2023/10/06 10:39:22;;;;;;;14.82;10.68;;;;;;;13.59;100.00;101517.69;4913057;29;20551;-47
2023/10/06 10:41:47;;;;;;;11.98;9.88;;;;;;;13.53;100.00;101504.47;4917116;29;20274;-48
2023/10/06 10:44:14;;;;;;;11.70;9.90;;;;;;;13.54;100.00;101500.00;4916951;29;20316;-47
2023/10/06 10:46:42;;;;;;;15.75;9.80;;;;;;;13.52;100.00;101493.78;4901058;29;20199;-46
2023/10/06 10:49:12;;;;;;;13.75;9.48;;;;;;;13.50;100.00;101504.59;4916254;29;20268;-45
2023/10/06 10:51:55;;;;;;;14.75;9.35;;;;;;;13.45;100.00;101495.84;4916928;29;20583;-48
2023/10/06 10:54:22;;;;;;;14.23;9.85;;;;;;;13.47;100.00;101507.44;4916223;29;20572;-48
2023/10/06 10:56:51;;;;;;;11.73;9.10;;;;;;;13.49;100.00;101491.19;4921237;29;20194;-46
2023/10/06 10:59:18;;;;;;;13.48;9.93;;;;;;;13.43;100.00;101489.66;4919768;29;20662;-46
2023/10/06 11:01:51;;;;;;;13.60;9.05;;;;;;;13.44;100.00;101486.00;4920277;29;20180;-48
2023/10/06 11:06:58;;;;;;;15.13;10.18;;;;;;;13.42;100.00;101487.00;4920733;29;20245;-48
2023/10/06 11:09:41;;;;;;;13.90;9.80;;;;;;;13.42;100.00;101490.56;4918631;29;20546;-46
2023/10/06 11:12:16;;;;;;;12.63;9.40;;;;;;;13.38;100.00;101492.53;4921047;29;20200;-47
2023/10/06 11:14:41;;;;;;;10.73;9.63;;;;;;;13.35;100.00;101464.84;4917129;29;20371;-46
2023/10/06 11:17:07;;;;;;;11.00;9.02;;;;;;;13.32;100.00;101470.34;4918659;29;20270;-45
2023/10/06 11:19:36;;;;;;;12.80;9.10;;;;;;;13.31;100.00;101457.81;4926431;29;20571;-46
2023/10/06 11:22:19;;;;;;;12.32;9.52;;;;;;;13.35;100.00;101463.03;4916916;29;20731;-48
2023/10/06 11:24:46;;;;;;;12.45;9.65;;;;;;;13.39;100.00;101444.94;4921959;29;20343;-48
2023/10/06 11:27:16;;;;;;;13.55;9.80;;;;;;;13.38;100.00;101440.47;4923148;29;20191;-47
2023/10/06 11:29:45;;;;;;;11.30;10.20;;;;;;;13.37;100.00;101430.66;4902494;29;20256;-48
2023/10/06 11:32:12;;;;;;;12.98;10.05;;;;;;;13.42;100.00;101441.25;4916161;29;20192;-46